Time;durP1;ratioP1;P1;durP2;ratioP2;P2;SDS_P1;SDS_P2;PMS_P1;PMS_P2;Temp;Humidity;BMP_temperature;BMP_pressure;BME280_temperature;BME280_humidity;BME280_pressure;Samples;Min_cycle;Max_cycle;Signal;HPM_P1;HPM_P2
2021/07/12 00:02:02;;;;;;;5.93;4.65;;;18.80;79.80;;;;;;4972546;28;20446;-74
2021/07/12 00:04:29;;;;;;;6.32;5.25;;;18.80;79.80;;;;;;4980027;28;20094;-74
2021/07/12 00:06:56;;;;;;;5.80;4.82;;;18.80;79.90;;;;;;4953560;28;20043;-74
2021/07/12 00:09:23;;;;;;;7.57;5.38;;;18.70;80.00;;;;;;4969620;28;20046;-74
2021/07/12 00:11:50;;;;;;;6.40;5.13;;;18.70;80.00;;;;;;4988610;28;20122;-74
2021/07/12 00:14:17;;;;;;;7.40;4.55;;;18.70;80.10;;;;;;4985323;28;20047;-75
2021/07/12 00:16:44;;;;;;;5.40;4.47;;;18.70;80.20;;;;;;4999785;28;20061;-74
2021/07/12 00:19:11;;;;;;;6.10;4.80;;;18.60;80.20;;;;;;4986375;28;20043;-75
2021/07/12 00:21:38;;;;;;;6.32;4.30;;;18.60;80.30;;;;;;4971100;28;20573;-75
2021/07/12 00:24:05;;;;;;;6.28;4.50;;;18.60;80.30;;;;;;4987620;28;20053;-74
2021/07/12 00:26:32;;;;;;;7.32;5.70;;;18.50;80.40;;;;;;4986894;28;20495;-75
2021/07/12 00:28:59;;;;;;;6.50;5.20;;;18.60;80.50;;;;;;4972825;28;20131;-74
2021/07/12 00:31:26;;;;;;;7.68;5.10;;;18.60;80.50;;;;;;4972014;28;20126;-75
2021/07/12 00:33:54;;;;;;;6.35;4.82;;;18.50;80.50;;;;;;4970244;28;20105;-74
2021/07/12 00:36:21;;;;;;;5.45;4.15;;;18.50;80.50;;;;;;4987937;28;20046;-75
2021/07/12 00:38:48;;;;;;;5.95;4.90;;;18.50;80.60;;;;;;4978504;28;20058;-74
2021/07/12 00:41:15;;;;;;;6.20;4.88;;;18.40;80.50;;;;;;4984635;28;20047;-75
2021/07/12 00:43:43;;;;;;;5.70;4.32;;;18.50;80.60;;;;;;4985686;28;20051;-74
2021/07/12 00:46:10;;;;;;;6.35;4.70;;;18.50;80.60;;;;;;4986787;28;20038;-75
2021/07/12 00:48:37;;;;;;;6.15;4.72;;;18.50;80.70;;;;;;5004236;28;20075;-75
2021/07/12 00:51:05;;;;;;;6.30;4.60;;;18.50;80.70;;;;;;5002257;28;20229;-75
2021/07/12 00:53:32;;;;;;;5.55;4.45;;;18.50;80.80;;;;;;4963673;28;20046;-75
2021/07/12 00:56:00;;;;;;;6.68;5.10;;;18.50;80.90;;;;;;4968553;28;20113;-74
2021/07/12 00:58:27;;;;;;;6.28;4.90;;;18.50;80.80;;;;;;4954404;28;20073;-74
2021/07/12 01:01:00;;;;;;;6.55;4.53;;;18.50;80.80;;;;;;5001465;28;20058;-74
2021/07/12 01:03:28;;;;;;;8.25;5.45;;;18.50;80.80;;;;;;5002726;28;20074;-75
2021/07/12 01:05:56;;;;;;;7.75;5.93;;;18.50;80.90;;;;;;4926790;28;20041;-75
2021/07/12 01:08:25;;;;;;;6.78;5.78;;;18.50;80.90;;;;;;5003020;28;20043;-75
2021/07/12 01:11:42;;;;;;;7.75;5.55;;;18.50;81.00;;;;;;4968064;28;20055;-75
2021/07/12 01:14:39;;;;;;;9.38;6.45;;;18.50;81.30;;;;;;4998312;28;20039;-74
2021/07/12 01:17:54;;;;;;;8.30;6.07;;;18.50;81.00;;;;;;4972282;28;20050;-75
2021/07/12 01:20:44;;;;;;;8.88;7.20;;;18.50;81.10;;;;;;4963607;28;20049;-74
2021/07/12 01:23:25;;;;;;;7.82;5.97;;;18.50;81.10;;;;;;4983259;28;20109;-74
2021/07/12 01:26:26;;;;;;;7.20;6.20;;;18.50;81.10;;;;;;4973480;28;20054;-75
2021/07/12 01:29:02;;;;;;;8.18;6.22;;;18.50;81.00;;;;;;4976322;28;20455;-75
2021/07/12 01:31:53;;;;;;;7.65;5.47;;;18.50;81.20;;;;;;4985877;28;20046;-75
2021/07/12 01:34:39;;;;;;;8.02;5.88;;;18.40;81.20;;;;;;4978902;28;20047;-75
2021/07/12 01:37:28;;;;;;;6.63;4.97;;;18.40;81.30;;;;;;5001307;28;20450;-75
2021/07/12 01:40:03;;;;;;;9.05;5.60;;;18.40;81.30;;;;;;4985242;28;20066;-75
2021/07/12 01:42:59;;;;;;;7.65;5.50;;;18.40;81.30;;;;;;4970726;28;20058;-75
2021/07/12 01:45:35;;;;;;;7.82;5.93;;;18.40;81.40;;;;;;4984545;28;20038;-75
2021/07/12 01:48:07;;;;;;;5.85;4.25;;;18.40;81.40;;;;;;4971578;28;20434;-75
2021/07/12 01:51:04;;;;;;;6.15;5.53;;;18.30;81.40;;;;;;4986352;28;20049;-75
2021/07/12 01:53:48;;;;;;;9.23;5.90;;;18.30;81.40;;;;;;4965363;28;20046;-75
2021/07/12 01:56:25;;;;;;;7.53;5.60;;;18.30;81.60;;;;;;4965777;28;20143;-75
2021/07/12 01:59:03;;;;;;;6.07;4.35;;;18.20;81.70;;;;;;4984528;28;20039;-75
2021/07/12 02:01:36;;;;;;;6.28;4.90;;;18.20;81.80;;;;;;4993163;28;20101;-75
2021/07/12 02:04:05;;;;;;;;;;;18.20;81.90;;;;;;5000183;28;20042;-75
2021/07/12 02:06:39;;;;;;;6.93;4.82;;;18.10;81.70;;;;;;4966589;28;19929;-75
2021/07/12 02:09:13;;;;;;;7.95;5.15;;;18.10;81.90;;;;;;4983772;28;20066;-75
2021/07/12 02:11:45;;;;;;;6.70;4.78;;;18.10;82.00;;;;;;4964749;28;20055;-75
2021/07/12 02:14:17;;;;;;;;;;;18.00;81.90;;;;;;4986606;28;20051;-75
2021/07/12 02:16:52;;;;;;;7.43;4.68;;;18.00;81.90;;;;;;4985522;28;19926;-75
2021/07/12 02:19:21;;;;;;;8.20;5.88;;;17.90;82.00;;;;;;4985704;28;20506;-75
2021/07/12 02:21:52;;;;;;;7.38;5.75;;;17.90;82.00;;;;;;4997281;28;20499;-75
2021/07/12 02:24:49;;;;;;;7.68;5.65;;;17.90;82.10;;;;;;4981755;28;20043;-75
2021/07/12 02:27:19;;;;;;;7.97;5.78;;;17.90;82.20;;;;;;4966920;28;20043;-75
2021/07/12 02:29:47;;;;;;;7.70;5.60;;;17.90;82.30;;;;;;4996409;28;20043;-75
2021/07/12 02:32:17;;;;;;;7.20;5.38;;;17.90;82.40;;;;;;4968859;28;20463;-75
2021/07/12 02:34:45;;;;;;;8.27;5.90;;;17.80;82.40;;;;;;4989197;28;20066;-75
2021/07/12 02:37:13;;;;;;;7.72;6.10;;;17.80;82.60;;;;;;4968977;28;20058;-75
2021/07/12 02:39:41;;;;;;;7.85;6.05;;;17.80;82.70;;;;;;4988649;28;20102;-75
2021/07/12 02:42:10;;;;;;;7.93;5.22;;;17.80;82.80;;;;;;4986166;28;20047;-75
2021/07/12 02:44:43;;;;;;;8.80;6.28;;;17.80;82.70;;;;;;5003545;28;20047;-75
2021/07/12 02:47:13;;;;;;;6.43;4.53;;;17.80;82.80;;;;;;4971329;28;20454;-75
2021/07/12 02:49:41;;;;;;;7.85;5.68;;;17.70;82.80;;;;;;5003400;28;20030;-75
2021/07/12 02:52:25;;;;;;;7.85;5.40;;;17.70;82.80;;;;;;4988192;28;20049;-75
2021/07/12 02:55:00;;;;;;;7.05;5.43;;;17.70;82.90;;;;;;4988340;28;20130;-75
2021/07/12 02:57:27;;;;;;;7.60;5.60;;;17.70;82.90;;;;;;4988194;28;20042;-75
2021/07/12 02:59:56;;;;;;;8.30;5.25;;;17.70;83.00;;;;;;4988607;28;20049;-75
2021/07/12 03:02:23;;;;;;;7.82;6.10;;;17.60;83.00;;;;;;4972919;28;20487;-75
2021/07/12 03:04:52;;;;;;;6.68;4.95;;;17.60;83.00;;;;;;4978595;28;20050;-75
2021/07/12 03:07:26;;;;;;;8.70;5.30;;;17.60;83.10;;;;;;4938565;28;20455;-75
2021/07/12 03:09:59;;;;;;;6.80;4.70;;;17.60;83.20;;;;;;4972139;28;20042;-75
2021/07/12 03:12:37;;;;;;;7.55;5.45;;;17.50;83.10;;;;;;5002129;28;20039;-75
2021/07/12 03:15:09;;;;;;;7.25;5.03;;;17.50;83.20;;;;;;5001025;28;20134;-75
2021/07/12 03:17:40;;;;;;;7.72;5.47;;;17.50;83.30;;;;;;4973180;28;20042;-75
2021/07/12 03:20:11;;;;;;;8.23;6.25;;;17.50;83.30;;;;;;4973147;28;20057;-75
2021/07/12 03:22:40;;;;;;;7.93;5.68;;;17.50;83.40;;;;;;4933461;28;1128310;-75
2021/07/12 03:25:10;;;;;;;8.75;6.13;;;17.40;83.40;;;;;;4988236;28;20408;-75
2021/07/12 03:27:39;;;;;;;8.93;6.03;;;17.40;83.40;;;;;;4973284;28;20419;-75
2021/07/12 03:30:11;;;;;;;7.03;5.13;;;17.40;83.50;;;;;;4973367;28;20039;-75
2021/07/12 03:32:43;;;;;;;7.78;5.63;;;17.40;83.50;;;;;;4968269;28;20035;-76
2021/07/12 03:35:13;;;;;;;7.07;5.28;;;17.30;83.60;;;;;;4951651;28;20065;-75
2021/07/12 03:37:43;;;;;;;7.75;5.45;;;17.40;83.70;;;;;;4968603;28;20069;-75
2021/07/12 03:40:12;;;;;;;8.32;5.38;;;17.40;83.70;;;;;;4980439;28;20166;-75
2021/07/12 03:42:45;;;;;;;9.20;6.35;;;17.30;83.60;;;;;;5006090;28;20076;-75
2021/07/12 03:45:13;;;;;;;7.28;5.32;;;17.30;83.60;;;;;;4970065;28;20098;-75
2021/07/12 03:47:46;;;;;;;8.45;5.47;;;17.30;83.60;;;;;;4968215;28;20066;-75
2021/07/12 03:50:16;;;;;;;9.35;5.53;;;17.30;83.60;;;;;;5005231;28;20049;-75
2021/07/12 03:52:48;;;;;;;8.68;6.05;;;17.30;83.70;;;;;;4980364;28;20043;-75
2021/07/12 03:55:25;;;;;;;7.90;6.03;;;17.30;83.70;;;;;;4974080;28;20039;-75
2021/07/12 03:57:52;;;;;;;9.60;5.80;;;17.30;84.30;;;;;;4980178;28;20055;-75
2021/07/12 04:00:23;;;;;;;8.35;5.93;;;17.30;84.30;;;;;;4973869;28;20512;-75
2021/07/12 04:02:51;;;;;;;9.13;6.05;;;17.30;83.80;;;;;;4972564;28;20042;-75
2021/07/12 04:05:23;;;;;;;7.82;6.00;;;17.30;83.80;;;;;;4973913;28;20042;-75
2021/07/12 04:07:52;;;;;;;7.45;5.50;;;17.30;83.90;;;;;;4973442;28;20045;-75
2021/07/12 04:10:19;;;;;;;7.88;5.28;;;17.30;83.90;;;;;;4989400;28;20035;-75
2021/07/12 04:12:47;;;;;;;8.40;5.63;;;17.30;84.00;;;;;;4973332;28;20447;-75
2021/07/12 04:15:15;;;;;;;10.05;6.43;;;17.40;84.00;;;;;;4988535;28;20050;-75
2021/07/12 04:17:43;;;;;;;8.85;5.85;;;17.40;83.90;;;;;;4971723;28;20047;-75
2021/07/12 04:20:11;;;;;;;7.10;5.38;;;17.40;83.80;;;;;;4988061;28;20122;-75
2021/07/12 04:22:38;;;;;;;7.60;5.63;;;17.40;83.80;;;;;;4985511;28;20054;-75
2021/07/12 04:25:06;;;;;;;9.10;5.95;;;17.40;83.90;;;;;;4970925;28;20454;-75
2021/07/12 04:27:34;;;;;;;8.10;6.18;;;17.40;83.90;;;;;;4987724;28;20039;-75
2021/07/12 04:30:01;;;;;;;8.20;5.88;;;17.40;83.90;;;;;;4971675;28;20046;-75
2021/07/12 04:32:28;;;;;;;7.72;5.88;;;17.50;83.90;;;;;;4968434;28;20054;-75
2021/07/12 04:34:55;;;;;;;7.13;5.47;;;17.50;83.80;;;;;;4971594;28;20118;-75
2021/07/12 04:37:22;;;;;;;9.70;6.13;;;17.60;83.80;;;;;;4971459;28;20080;-75
2021/07/12 04:39:49;;;;;;;9.38;5.80;;;17.60;83.70;;;;;;4971857;28;20050;-75
2021/07/12 04:42:17;;;;;;;7.07;5.35;;;17.70;83.70;;;;;;4972690;28;20044;-75
2021/07/12 04:44:44;;;;;;;8.82;6.57;;;17.80;83.60;;;;;;4971710;28;20077;-75
2021/07/12 04:47:11;;;;;;;8.57;5.90;;;17.80;83.60;;;;;;5000970;28;20428;-75
2021/07/12 04:49:38;;;;;;;9.25;6.15;;;17.90;83.60;;;;;;4983911;28;20049;-75
2021/07/12 04:52:05;;;;;;;9.68;6.07;;;17.90;83.50;;;;;;4970134;28;20045;-75
2021/07/12 04:54:33;;;;;;;8.82;6.65;;;18.10;83.40;;;;;;4967596;28;20039;-75
2021/07/12 04:57:00;;;;;;;8.63;5.88;;;18.10;83.30;;;;;;4971525;28;20118;-75
2021/07/12 04:59:28;;;;;;;8.43;5.55;;;18.20;83.30;;;;;;4970169;28;20070;-75
2021/07/12 05:01:56;;;;;;;9.20;6.00;;;18.20;83.20;;;;;;4969076;28;20051;-75
2021/07/12 05:04:23;;;;;;;7.85;5.45;;;18.30;83.30;;;;;;4971464;28;20065;-75
2021/07/12 05:06:50;;;;;;;8.50;6.10;;;18.30;83.20;;;;;;4984938;28;20089;-75
2021/07/12 05:09:17;;;;;;;7.80;5.93;;;18.40;83.30;;;;;;4971545;28;20046;-75
2021/07/12 05:11:44;;;;;;;8.98;6.25;;;18.40;83.20;;;;;;4985994;28;20097;-75
2021/07/12 05:14:11;;;;;;;8.65;6.57;;;18.50;83.20;;;;;;4981561;28;20043;-75
2021/07/12 05:16:40;;;;;;;9.07;6.95;;;18.60;83.20;;;;;;4985950;28;20098;-75
2021/07/12 05:19:08;;;;;;;9.43;6.55;;;18.60;83.10;;;;;;4969039;28;20042;-75
2021/07/12 05:21:35;;;;;;;7.05;5.47;;;18.70;83.10;;;;;;4982238;28;20059;-75
2021/07/12 05:24:02;;;;;;;9.23;6.55;;;18.80;83.10;;;;;;5002373;28;20046;-75
2021/07/12 05:26:29;;;;;;;8.98;6.53;;;18.80;83.00;;;;;;4969747;28;20509;-75
2021/07/12 05:28:56;;;;;;;8.38;6.20;;;18.90;82.90;;;;;;4973334;28;20053;-75
2021/07/12 05:31:23;;;;;;;9.50;6.20;;;19.00;82.90;;;;;;4971277;28;20039;-75
2021/07/12 05:33:50;;;;;;;8.90;6.50;;;19.10;82.80;;;;;;4986071;28;20053;-75
2021/07/12 05:36:17;;;;;;;8.70;6.38;;;19.10;83.30;;;;;;4986464;28;20117;-75
2021/07/12 05:38:45;;;;;;;9.93;7.25;;;19.20;82.60;;;;;;4970256;28;20054;-75
2021/07/12 05:41:12;;;;;;;8.35;6.30;;;19.30;82.60;;;;;;4986731;28;20069;-75
2021/07/12 05:43:39;;;;;;;9.25;7.10;;;19.30;82.50;;;;;;4983001;28;20043;-77
2021/07/12 05:46:06;;;;;;;13.07;8.38;;;19.40;82.50;;;;;;4963236;28;20087;-76
2021/07/12 05:48:33;;;;;;;9.27;7.30;;;19.50;82.40;;;;;;4970007;28;20047;-75
2021/07/12 05:51:00;;;;;;;12.13;8.40;;;19.50;82.40;;;;;;4969101;28;20053;-75
2021/07/12 05:53:27;;;;;;;12.48;9.13;;;19.60;82.20;;;;;;4970748;28;20031;-76
2021/07/12 05:55:54;;;;;;;10.13;7.30;;;19.60;82.10;;;;;;4999044;28;20434;-76
2021/07/12 05:58:21;;;;;;;9.63;7.07;;;19.70;82.00;;;;;;4977117;28;20051;-75
2021/07/12 06:00:48;;;;;;;9.90;8.00;;;19.70;81.90;;;;;;4968601;28;20101;-76
2021/07/12 06:03:15;;;;;;;9.43;7.78;;;19.80;81.80;;;;;;4970657;28;20054;-76
2021/07/12 06:05:42;;;;;;;8.93;6.65;;;19.90;81.80;;;;;;4984411;28;20476;-74
2021/07/12 06:08:09;;;;;;;11.98;8.90;;;19.90;81.70;;;;;;4966681;28;20046;-76
2021/07/12 06:10:36;;;;;;;9.75;7.28;;;20.00;81.50;;;;;;4974601;28;20048;-76
2021/07/12 06:13:03;;;;;;;12.20;8.00;;;20.10;81.40;;;;;;4984553;28;20439;-76
2021/07/12 06:15:31;;;;;;;13.25;9.95;;;20.20;81.30;;;;;;4967668;28;20046;-75
2021/07/12 06:17:58;;;;;;;12.00;9.43;;;20.30;81.20;;;;;;4969335;28;20058;-76
2021/07/12 06:20:25;;;;;;;10.23;8.23;;;20.30;81.20;;;;;;4990485;28;20495;-75
2021/07/12 06:22:52;;;;;;;11.60;8.20;;;20.40;81.10;;;;;;4988828;28;20419;-75
2021/07/12 06:25:22;;;;;;;9.98;7.82;;;20.50;81.00;;;;;;5006056;28;20066;-75
2021/07/12 06:27:49;;;;;;;12.73;8.77;;;20.60;80.80;;;;;;4990504;28;20039;-75
2021/07/12 06:30:17;;;;;;;9.93;7.85;;;20.70;80.70;;;;;;4973441;28;20043;-75
2021/07/12 06:32:46;;;;;;;8.95;6.60;;;20.80;80.50;;;;;;4973675;28;20134;-75
2021/07/12 06:35:14;;;;;;;8.15;6.18;;;20.90;80.40;;;;;;4975247;28;20043;-75
2021/07/12 06:37:41;;;;;;;11.77;8.35;;;20.90;80.20;;;;;;4989735;28;20138;-75
2021/07/12 06:40:09;;;;;;;8.20;6.72;;;21.00;80.20;;;;;;4972915;28;20066;-75
2021/07/12 06:42:36;;;;;;;9.27;7.57;;;21.00;80.10;;;;;;5006240;28;20035;-75
2021/07/12 06:45:06;;;;;;;8.38;6.10;;;21.10;80.00;;;;;;4972201;28;20066;-75
2021/07/12 06:47:34;;;;;;;8.77;6.82;;;21.20;79.80;;;;;;4987787;28;20051;-75
2021/07/12 06:50:04;;;;;;;9.43;7.47;;;21.30;79.70;;;;;;4972922;28;20065;-75
2021/07/12 06:52:31;;;;;;;9.75;7.60;;;21.30;79.40;;;;;;5006979;28;20046;-74
2021/07/12 06:54:58;;;;;;;9.32;7.18;;;21.50;79.20;;;;;;4969006;28;20039;-76
2021/07/12 06:57:25;;;;;;;8.43;6.97;;;21.60;79.70;;;;;;4971171;28;20050;-75
2021/07/12 06:59:52;;;;;;;9.52;7.70;;;21.70;78.90;;;;;;4974175;28;20446;-75
2021/07/12 07:02:19;;;;;;;8.27;6.97;;;21.80;78.70;;;;;;4996437;28;20047;-76
2021/07/12 07:04:55;;;;;;;10.52;7.68;;;21.90;78.40;;;;;;4985262;28;20057;-75
2021/07/12 07:07:22;;;;;;;11.07;8.57;;;22.00;78.10;;;;;;4971507;28;20093;-75
2021/07/12 07:09:49;;;;;;;11.30;8.55;;;22.00;77.90;;;;;;4954600;28;20066;-74
2021/07/12 07:12:16;;;;;;;10.43;8.05;;;21.90;77.90;;;;;;4974359;28;20031;-75
2021/07/12 07:14:46;;;;;;;9.35;7.07;;;21.90;78.00;;;;;;4954394;28;20525;-75
2021/07/12 07:17:13;;;;;;;8.73;7.35;;;21.80;78.20;;;;;;4967327;28;20043;-75
2021/07/12 07:19:40;;;;;;;8.63;6.63;;;21.80;78.30;;;;;;4969052;28;20075;-75
2021/07/12 07:22:07;;;;;;;7.93;6.35;;;21.80;78.30;;;;;;4985124;28;20522;-75
2021/07/12 07:24:49;;;;;;;9.48;7.40;;;21.80;78.10;;;;;;5004192;28;20047;-75
2021/07/12 07:27:38;;;;;;;9.10;7.38;;;21.90;78.00;;;;;;5003251;28;20042;-75
2021/07/12 07:30:07;;;;;;;9.52;7.65;;;22.00;77.90;;;;;;4973129;28;20035;-75
2021/07/12 07:32:34;;;;;;;9.35;7.55;;;22.10;77.60;;;;;;4972362;28;20035;-75
2021/07/12 07:35:02;;;;;;;11.35;8.88;;;22.30;77.30;;;;;;4986527;28;20050;-77
2021/07/12 07:37:29;;;;;;;10.40;7.43;;;22.40;76.90;;;;;;4974906;28;20043;-77
2021/07/12 07:39:56;;;;;;;9.27;7.53;;;22.50;76.60;;;;;;5002397;28;20090;-77
2021/07/12 07:42:24;;;;;;;9.85;8.23;;;22.70;76.50;;;;;;5005493;28;20049;-77
2021/07/12 07:44:52;;;;;;;10.13;8.55;;;22.80;76.10;;;;;;4973998;28;20043;-77
2021/07/12 07:47:19;;;;;;;9.60;7.50;;;22.90;75.80;;;;;;5005086;28;20035;-77
2021/07/12 07:49:46;;;;;;;9.38;8.02;;;23.00;75.70;;;;;;4974238;28;20125;-77
2021/07/12 07:52:14;;;;;;;9.32;7.00;;;23.10;75.50;;;;;;4974558;28;20038;-77
2021/07/12 07:54:41;;;;;;;8.73;7.45;;;23.10;75.40;;;;;;5005195;28;20451;-77
2021/07/12 07:57:08;;;;;;;8.32;6.68;;;23.20;75.30;;;;;;5005211;28;20077;-77
2021/07/12 07:59:35;;;;;;;9.02;7.38;;;23.30;75.20;;;;;;4972931;28;20042;-76
2021/07/12 08:02:06;;;;;;;9.88;8.27;;;23.40;75.10;;;;;;4973742;28;20046;-74
2021/07/12 08:04:47;;;;;;;12.35;9.13;;;23.50;74.90;;;;;;4966609;28;20508;-75
2021/07/12 08:07:14;;;;;;;11.65;7.78;;;23.60;74.70;;;;;;4983321;28;20035;-75
2021/07/12 08:09:41;;;;;;;9.05;7.22;;;23.70;74.50;;;;;;4970009;28;20146;-73
2021/07/12 08:12:08;;;;;;;8.20;6.90;;;23.70;74.20;;;;;;4981532;28;20043;-74
2021/07/12 08:14:38;;;;;;;9.68;6.07;;;23.80;74.00;;;;;;4987579;28;20053;-73
2021/07/12 08:17:08;;;;;;;8.25;7.35;;;23.90;73.80;;;;;;4977036;28;20499;-74
2021/07/12 08:19:35;;;;;;;9.02;7.32;;;24.00;73.60;;;;;;4999635;28;20050;-74
2021/07/12 08:22:06;;;;;;;9.70;6.75;;;24.10;73.30;;;;;;4943461;28;20515;-74
2021/07/12 08:24:33;;;;;;;6.60;5.55;;;24.20;73.10;;;;;;4956351;28;20442;-74
2021/07/12 08:27:02;;;;;;;7.80;5.78;;;24.20;72.80;;;;;;4968610;28;20043;-74
2021/07/12 08:29:30;;;;;;;7.40;5.80;;;24.40;72.60;;;;;;4972453;28;20042;-74
2021/07/12 08:31:58;;;;;;;6.32;5.20;;;24.50;72.20;;;;;;4973219;28;20039;-74
2021/07/12 08:34:25;;;;;;;6.40;5.18;;;24.50;71.80;;;;;;4973625;28;20038;-75
2021/07/12 08:36:52;;;;;;;6.28;4.88;;;24.60;71.60;;;;;;4973252;28;20599;-75
2021/07/12 08:39:20;;;;;;;6.57;5.68;;;24.60;71.90;;;;;;4972852;28;20049;-76
2021/07/12 08:41:48;;;;;;;8.20;6.35;;;24.70;71.00;;;;;;4972830;28;20070;-80
2021/07/12 08:44:29;;;;;;;6.88;5.32;;;24.80;70.70;;;;;;4963552;28;20074;-75
2021/07/12 08:46:57;;;;;;;6.07;4.95;;;24.80;70.50;;;;;;4965330;28;20053;-77
2021/07/12 08:49:25;;;;;;;7.50;5.88;;;24.90;70.40;;;;;;4966843;28;20039;-76
2021/07/12 08:51:52;;;;;;;6.85;5.15;;;24.90;70.10;;;;;;5004136;28;20522;-76
2021/07/12 08:54:19;;;;;;;6.10;4.68;;;25.00;69.90;;;;;;4967447;28;20082;-77
2021/07/12 08:56:46;;;;;;;7.30;5.07;;;25.10;69.60;;;;;;4951176;28;20494;-76
2021/07/12 08:59:39;;;;;;;6.82;4.25;;;25.20;69.30;;;;;;4970024;28;20043;-76
2021/07/12 09:02:15;;;;;;;6.18;4.90;;;25.30;69.10;;;;;;4987449;28;20061;-77
2021/07/12 09:04:45;;;;;;;6.22;4.85;;;25.30;69.60;;;;;;4997083;28;20046;-75
2021/07/12 09:07:21;;;;;;;5.97;5.15;;;25.40;68.70;;;;;;4968264;28;20052;-76
2021/07/12 09:10:05;;;;;;;5.95;5.00;;;25.50;68.30;;;;;;4996341;28;20069;-76
2021/07/12 09:12:50;;;;;;;6.03;4.80;;;25.50;68.00;;;;;;4982450;28;20033;-76
2021/07/12 09:15:19;;;;;;;5.38;4.45;;;25.60;67.70;;;;;;4970510;28;20039;-76
2021/07/12 09:17:49;;;;;;;6.35;5.00;;;25.50;67.80;;;;;;4966068;28;20051;-76
2021/07/12 09:20:31;;;;;;;6.25;5.25;;;25.50;67.80;;;;;;4970768;28;20057;-75
2021/07/12 09:23:18;;;;;;;6.70;5.18;;;25.60;67.60;;;;;;4967981;28;20059;-75
2021/07/12 09:26:03;;;;;;;6.07;4.53;;;25.70;68.10;;;;;;4982757;28;20054;-75
2021/07/12 09:28:40;;;;;;;8.27;6.43;;;25.70;67.30;;;;;;4986342;28;20050;-75
2021/07/12 09:31:26;;;;;;;6.88;5.18;;;25.50;67.10;;;;;;4970127;28;20422;-76
2021/07/12 09:33:54;;;;;;;5.93;4.20;;;25.40;67.30;;;;;;4966640;28;20081;-76
2021/07/12 09:36:32;;;;;;;5.85;4.57;;;25.50;67.10;;;;;;4981936;28;20043;-76
2021/07/12 09:39:33;;;;;;;5.60;3.85;;;25.70;66.50;;;;;;4969048;28;20503;-76
2021/07/12 09:42:02;;;;;;;5.90;3.42;;;26.00;65.80;;;;;;4969728;28;20042;-77
2021/07/12 09:44:30;;;;;;;5.10;4.10;;;25.90;65.80;;;;;;4987183;28;20089;-77
2021/07/12 09:47:04;;;;;;;4.95;4.07;;;25.90;65.70;;;;;;5000774;28;20460;-76
2021/07/12 09:49:32;;;;;;;4.93;3.50;;;26.10;65.40;;;;;;4970082;28;20042;-76
2021/07/12 09:52:02;;;;;;;5.35;4.07;;;26.20;65.20;;;;;;4969011;28;20454;-76
2021/07/12 09:54:35;;;;;;;6.72;5.15;;;26.30;64.80;;;;;;4999072;28;20062;-76
2021/07/12 09:57:10;;;;;;;5.13;3.78;;;26.40;64.30;;;;;;4969430;28;20057;-76
2021/07/12 09:59:52;;;;;;;5.80;4.15;;;26.60;64.30;;;;;;4963213;28;20409;-77
2021/07/12 10:02:25;;;;;;;5.30;3.53;;;26.70;63.80;;;;;;4970632;28;20042;-76
2021/07/12 10:04:57;;;;;;;6.80;4.57;;;26.70;63.80;;;;;;4982848;28;20062;-76
2021/07/12 10:07:24;;;;;;;5.20;4.10;;;26.80;63.10;;;;;;4983928;28;20053;-76
2021/07/12 10:09:51;;;;;;;6.03;4.68;;;26.90;62.90;;;;;;4967736;28;20478;-75
2021/07/12 10:12:18;;;;;;;5.07;3.83;;;26.80;62.90;;;;;;4984057;28;20039;-77
2021/07/12 10:14:46;;;;;;;4.57;3.85;;;26.70;63.00;;;;;;4979535;28;20063;-75
2021/07/12 10:17:13;;;;;;;4.95;3.92;;;26.80;63.00;;;;;;4966718;28;20050;-76
2021/07/12 10:19:43;;;;;;;5.97;3.88;;;26.90;62.40;;;;;;4943269;28;20055;-76
2021/07/12 10:22:14;;;;;;;4.50;3.22;;;26.80;62.20;;;;;;4963151;28;20082;-76
2021/07/12 10:24:44;;;;;;;5.38;3.67;;;26.60;62.40;;;;;;4967089;28;20518;-74
2021/07/12 10:27:26;;;;;;;5.35;3.85;;;26.40;62.60;;;;;;4969147;28;20050;-75
2021/07/12 10:30:17;;;;;;;5.60;4.30;;;26.30;62.50;;;;;;4982532;28;20129;-74
2021/07/12 10:32:53;;;;;;;5.00;3.83;;;26.30;62.40;;;;;;4966938;28;20765;-75
2021/07/12 10:35:40;;;;;;;4.93;3.30;;;26.40;62.20;;;;;;4967207;28;20041;-76
2021/07/12 10:38:08;;;;;;;4.13;3.10;;;26.60;61.70;;;;;;4968580;28;20034;-74
2021/07/12 10:40:44;;;;;;;4.43;3.17;;;26.70;61.20;;;;;;4983954;28;20057;-75
2021/07/12 10:43:11;;;;;;;4.50;3.70;;;26.80;60.90;;;;;;4980254;28;20112;-75
2021/07/12 10:45:41;;;;;;;4.28;3.40;;;26.70;60.80;;;;;;4967290;28;20082;-75
2021/07/12 10:48:11;;;;;;;4.88;3.90;;;26.70;61.00;;;;;;4966231;28;20085;-75
2021/07/12 10:50:50;;;;;;;4.55;3.28;;;26.80;60.60;;;;;;4965487;28;20039;-77
2021/07/12 10:53:26;;;;;;;3.85;2.65;;;27.00;60.30;;;;;;4969646;28;20052;-74
2021/07/12 10:56:12;;;;;;;4.20;3.30;;;27.30;59.80;;;;;;5000672;28;20169;-76
2021/07/12 10:58:40;;;;;;;4.30;2.97;;;27.30;59.50;;;;;;4989450;28;20072;-77
2021/07/12 11:01:11;;;;;;;4.43;3.05;;;27.10;59.70;;;;;;4971015;28;20070;-74
2021/07/12 11:03:46;;;;;;;3.75;2.90;;;27.00;59.80;;;;;;4969482;28;20123;-74
2021/07/12 11:06:16;;;;;;;3.70;3.03;;;27.00;60.10;;;;;;5003293;28;20078;-75
2021/07/12 11:08:51;;;;;;;4.68;3.63;;;27.10;59.80;;;;;;5000325;28;20043;-75
2021/07/12 11:11:24;;;;;;;4.88;3.35;;;27.10;59.40;;;;;;4973131;28;20043;-74
2021/07/12 11:14:05;;;;;;;4.32;3.10;;;27.10;59.30;;;;;;4986073;28;20122;-74
2021/07/12 11:16:46;;;;;;;4.70;2.72;;;27.10;59.30;;;;;;4970423;28;20038;-74
2021/07/12 11:19:31;;;;;;;4.38;2.60;;;27.10;59.20;;;;;;4970075;28;20941;-74
2021/07/12 11:22:13;;;;;;;4.90;3.40;;;27.00;59.60;;;;;;4984907;28;20058;-75
2021/07/12 11:24:59;;;;;;;4.75;3.25;;;27.00;59.40;;;;;;4969835;28;20483;-74
2021/07/12 11:27:40;;;;;;;3.90;2.42;;;26.90;59.30;;;;;;4982672;28;20455;-74
2021/07/12 11:30:24;;;;;;;5.20;3.75;;;26.90;59.50;;;;;;4972165;28;20565;-74
2021/07/12 11:32:51;;;;;;;3.92;3.10;;;26.90;59.40;;;;;;4999211;28;20094;-75
2021/07/12 11:35:18;;;;;;;4.65;3.33;;;26.90;59.40;;;;;;4980253;28;20064;-75
2021/07/12 11:37:46;;;;;;;5.10;3.30;;;27.00;59.10;;;;;;4971577;28;20043;-75
2021/07/12 11:40:13;;;;;;;4.45;3.17;;;27.10;58.80;;;;;;4986842;28;20051;-75
2021/07/12 11:42:41;;;;;;;4.20;3.35;;;27.10;58.60;;;;;;4986408;28;20566;-75
2021/07/12 11:45:11;;;;;;;4.13;3.03;;;27.10;58.50;;;;;;4971438;28;20043;-74
2021/07/12 11:47:41;;;;;;;3.25;2.40;;;27.00;58.60;;;;;;4971500;28;20117;-74
2021/07/12 11:50:19;;;;;;;3.75;2.65;;;27.00;58.70;;;;;;4972324;28;20035;-74
2021/07/12 11:52:57;;;;;;;4.03;3.15;;;27.00;58.70;;;;;;4985898;28;20038;-74
2021/07/12 11:55:32;;;;;;;4.50;2.83;;;27.00;58.80;;;;;;4984602;28;20035;-73
2021/07/12 11:58:02;;;;;;;4.07;3.00;;;26.90;58.50;;;;;;4970468;28;20038;-74
2021/07/12 12:00:47;;;;;;;3.30;2.47;;;27.00;58.60;;;;;;4970872;28;20062;-74
2021/07/12 12:03:16;;;;;;;3.13;2.42;;;27.00;58.60;;;;;;4971716;28;20107;-74
2021/07/12 12:05:45;;;;;;;3.80;2.70;;;27.00;58.50;;;;;;4961528;28;20035;-74
2021/07/12 12:08:16;;;;;;;3.88;3.22;;;27.10;58.40;;;;;;4970148;28;20050;-75
2021/07/12 12:10:45;;;;;;;3.08;2.38;;;27.20;58.00;;;;;;4967088;28;20527;-75
2021/07/12 12:13:20;;;;;;;4.05;2.70;;;27.20;58.20;;;;;;4967455;28;20416;-75
2021/07/12 12:15:53;;;;;;;3.38;2.55;;;27.30;58.20;;;;;;4969868;28;21876;-75
2021/07/12 12:18:30;;;;;;;4.13;2.88;;;27.30;58.10;;;;;;4998671;28;20089;-76
2021/07/12 12:20:59;;;;;;;3.35;2.78;;;27.30;58.00;;;;;;5001650;28;20053;-77
2021/07/12 12:23:35;;;;;;;3.40;2.40;;;27.30;57.90;;;;;;4984000;28;20054;-79
2021/07/12 12:26:14;;;;;;;4.20;2.58;;;27.30;57.80;;;;;;5000984;28;20071;-78
2021/07/12 12:28:48;;;;;;;3.42;2.33;;;27.30;57.90;;;;;;4964935;28;20047;-77
2021/07/12 12:31:18;;;;;;;4.25;3.30;;;27.30;58.10;;;;;;4974745;28;20044;-79
2021/07/12 12:33:56;;;;;;;5.30;3.70;;;27.20;58.00;;;;;;5013644;28;20039;-78
2021/07/12 12:36:26;;;;;;;3.58;2.92;;;27.10;57.70;;;;;;4987564;28;20050;-77
2021/07/12 12:38:57;;;;;;;4.13;3.20;;;26.90;58.00;;;;;;4970167;28;20391;-77
2021/07/12 12:41:36;;;;;;;4.00;2.88;;;26.80;58.10;;;;;;4990873;28;20144;-79
2021/07/12 12:44:08;;;;;;;3.85;3.15;;;26.80;58.10;;;;;;4985474;28;20035;-77
2021/07/12 12:46:36;;;;;;;3.60;2.97;;;26.80;58.20;;;;;;4973046;28;20517;-78
2021/07/12 12:49:21;;;;;;;4.07;3.08;;;26.80;58.10;;;;;;4971336;28;20035;-78
2021/07/12 12:51:54;;;;;;;3.72;2.55;;;26.90;57.90;;;;;;4961355;28;20042;-76
2021/07/12 12:54:43;;;;;;;4.40;3.08;;;27.00;57.90;;;;;;4969267;28;20038;-77
2021/07/12 12:57:11;;;;;;;3.60;2.85;;;27.00;57.70;;;;;;4978562;28;20406;-78
2021/07/12 12:59:43;;;;;;;3.33;2.65;;;27.10;57.70;;;;;;4983890;28;20042;-77
2021/07/12 13:02:20;;;;;;;3.55;3.03;;;27.20;57.40;;;;;;4966425;28;20090;-75
2021/07/12 13:04:49;;;;;;;3.55;3.05;;;27.20;57.50;;;;;;4990527;28;20061;-76
2021/07/12 13:07:21;;;;;;;5.78;3.28;;;27.10;57.60;;;;;;4966533;28;20478;-75
2021/07/12 13:10:01;;;;;;;3.75;3.00;;;27.00;57.70;;;;;;4967605;28;20151;-75